sensor_id;sensor_type;location;lat;lon;timestamp;P1;P2;P0
70554;PMS5003;58104;52.744;15.242;2023-06-26T00:02:04;19;19;
70554;PMS5003;58104;52.744;15.242;2023-06-26T00:04:29;21;21;
70554;PMS5003;58104;52.744;15.242;2023-06-26T00:06:55;23;23;
70554;PMS5003;58104;52.744;15.242;2023-06-26T00:09:20;22;22;
70554;PMS5003;58104;52.744;15.242;2023-06-26T00:11:45;21;21;
70554;PMS5003;58104;52.744;15.242;2023-06-26T00:14:10;22;21;
70554;PMS5003;58104;52.744;15.242;2023-06-26T00:16:36;21;18;
70554;PMS5003;58104;52.744;15.242;2023-06-26T00:19:01;23;21;
70554;PMS5003;58104;52.744;15.242;2023-06-26T00:21:26;20;20;
70554;PMS5003;58104;52.744;15.242;2023-06-26T00:23:52;21;21;
70554;PMS5003;58104;52.744;15.242;2023-06-26T00:26:17;20;20;
70554;PMS5003;58104;52.744;15.242;2023-06-26T00:28:42;18;18;
70554;PMS5003;58104;52.744;15.242;2023-06-26T00:31:08;23;21;
70554;PMS5003;58104;52.744;15.242;2023-06-26T00:33:33;21;21;
70554;PMS5003;58104;52.744;15.242;2023-06-26T00:35:58;20;20;
70554;PMS5003;58104;52.744;15.242;2023-06-26T00:38:23;19;19;
70554;PMS5003;58104;52.744;15.242;2023-06-26T00:40:49;23;23;
70554;PMS5003;58104;52.744;15.242;2023-06-26T00:43:14;24;24;
70554;PMS5003;58104;52.744;15.242;2023-06-26T00:45:40;22;20;
70554;PMS5003;58104;52.744;15.242;2023-06-26T00:48:05;22;22;
70554;PMS5003;58104;52.744;15.242;2023-06-26T00:50:30;27;25;
70554;PMS5003;58104;52.744;15.242;2023-06-26T00:52:56;25;24;
70554;PMS5003;58104;52.744;15.242;2023-06-26T00:55:21;26;26;
70554;PMS5003;58104;52.744;15.242;2023-06-26T00:57:47;22;22;
70554;PMS5003;58104;52.744;15.242;2023-06-26T01:00:13;29;25;
70554;PMS5003;58104;52.744;15.242;2023-06-26T01:02:37;34;30;
70554;PMS5003;58104;52.744;15.242;2023-06-26T01:05:03;24;24;
70554;PMS5003;58104;52.744;15.242;2023-06-26T01:07:28;26;26;
70554;PMS5003;58104;52.744;15.242;2023-06-26T01:09:54;30;30;
70554;PMS5003;58104;52.744;15.242;2023-06-26T01:12:19;22;22;
70554;PMS5003;58104;52.744;15.242;2023-06-26T01:14:44;23;23;
70554;PMS5003;58104;52.744;15.242;2023-06-26T01:17:09;27;25;
70554;PMS5003;58104;52.744;15.242;2023-06-26T01:19:35;26;26;
70554;PMS5003;58104;52.744;15.242;2023-06-26T01:22:02;31;31;
70554;PMS5003;58104;52.744;15.242;2023-06-26T01:24:27;28;26;
70554;PMS5003;58104;52.744;15.242;2023-06-26T01:26:50;29;28;
70554;PMS5003;58104;52.744;15.242;2023-06-26T01:29:16;26;25;
70554;PMS5003;58104;52.744;15.242;2023-06-26T01:31:41;29;28;
70554;PMS5003;58104;52.744;15.242;2023-06-26T01:34:06;28;28;
70554;PMS5003;58104;52.744;15.242;2023-06-26T01:36:31;25;25;
70554;PMS5003;58104;52.744;15.242;2023-06-26T01:38:57;28;27;
70554;PMS5003;58104;52.744;15.242;2023-06-26T01:41:23;28;28;
70554;PMS5003;58104;52.744;15.242;2023-06-26T01:43:59;27;26;
70554;PMS5003;58104;52.744;15.242;2023-06-26T01:46:15;28;27;
70554;PMS5003;58104;52.744;15.242;2023-06-26T01:48:40;28;25;
70554;PMS5003;58104;52.744;15.242;2023-06-26T01:51:04;28;25;
70554;PMS5003;58104;52.744;15.242;2023-06-26T01:53:32;26;26;
70554;PMS5003;58104;52.744;15.242;2023-06-26T01:55:59;27;26;
70554;PMS5003;58104;52.744;15.242;2023-06-26T01:58:22;29;27;
70554;PMS5003;58104;52.744;15.242;2023-06-26T02:00:46;29;27;
70554;PMS5003;58104;52.744;15.242;2023-06-26T02:03:12;26;25;
70554;PMS5003;58104;52.744;15.242;2023-06-26T02:05:37;30;30;
70554;PMS5003;58104;52.744;15.242;2023-06-26T02:08:02;30;29;
70554;PMS5003;58104;52.744;15.242;2023-06-26T02:10:27;30;30;
70554;PMS5003;58104;52.744;15.242;2023-06-26T02:12:53;27;27;
70554;PMS5003;58104;52.744;15.242;2023-06-26T02:15:19;29;29;
70554;PMS5003;58104;52.744;15.242;2023-06-26T02:17:44;32;29;
70554;PMS5003;58104;52.744;15.242;2023-06-26T02:20:10;30;30;
70554;PMS5003;58104;52.744;15.242;2023-06-26T02:22:35;29;28;
70554;PMS5003;58104;52.744;15.242;2023-06-26T02:25:01;33;30;
70554;PMS5003;58104;52.744;15.242;2023-06-26T02:27:26;27;26;
70554;PMS5003;58104;52.744;15.242;2023-06-26T02:29:52;32;32;
70554;PMS5003;58104;52.744;15.242;2023-06-26T02:32:18;31;29;
70554;PMS5003;58104;52.744;15.242;2023-06-26T02:34:43;33;29;
70554;PMS5003;58104;52.744;15.242;2023-06-26T02:37:08;30;27;
70554;PMS5003;58104;52.744;15.242;2023-06-26T02:39:33;28;26;
70554;PMS5003;58104;52.744;15.242;2023-06-26T02:41:58;32;30;
70554;PMS5003;58104;52.744;15.242;2023-06-26T02:44:23;30;27;
70554;PMS5003;58104;52.744;15.242;2023-06-26T02:46:49;25;25;
70554;PMS5003;58104;52.744;15.242;2023-06-26T02:49:14;22;22;
70554;PMS5003;58104;52.744;15.242;2023-06-26T02:51:39;26;26;
70554;PMS5003;58104;52.744;15.242;2023-06-26T02:54:05;31;31;
70554;PMS5003;58104;52.744;15.242;2023-06-26T02:56:30;34;30;
70554;PMS5003;58104;52.744;15.242;2023-06-26T02:58:55;25;25;
70554;PMS5003;58104;52.744;15.242;2023-06-26T03:01:20;26;26;
70554;PMS5003;58104;52.744;15.242;2023-06-26T03:03:46;27;27;
70554;PMS5003;58104;52.744;15.242;2023-06-26T03:06:11;24;24;
70554;PMS5003;58104;52.744;15.242;2023-06-26T03:08:36;24;23;
70554;PMS5003;58104;52.744;15.242;2023-06-26T03:11:02;32;29;
70554;PMS5003;58104;52.744;15.242;2023-06-26T03:13:27;30;29;
70554;PMS5003;58104;52.744;15.242;2023-06-26T03:15:52;28;25;
70554;PMS5003;58104;52.744;15.242;2023-06-26T03:18:18;24;24;
70554;PMS5003;58104;52.744;15.242;2023-06-26T03:20:44;26;26;
70554;PMS5003;58104;52.744;15.242;2023-06-26T03:23:09;24;24;
70554;PMS5003;58104;52.744;15.242;2023-06-26T03:25:35;26;25;
70554;PMS5003;58104;52.744;15.242;2023-06-26T03:28:00;23;23;
70554;PMS5003;58104;52.744;15.242;2023-06-26T03:30:25;30;30;
70554;PMS5003;58104;52.744;15.242;2023-06-26T03:32:50;28;24;
70554;PMS5003;58104;52.744;15.242;2023-06-26T03:35:15;25;24;
70554;PMS5003;58104;52.744;15.242;2023-06-26T03:37:41;25;23;
70554;PMS5003;58104;52.744;15.242;2023-06-26T03:40:07;26;25;
70554;PMS5003;58104;52.744;15.242;2023-06-26T03:42:32;24;24;
70554;PMS5003;58104;52.744;15.242;2023-06-26T03:44:57;25;24;
70554;PMS5003;58104;52.744;15.242;2023-06-26T03:47:22;22;21;
70554;PMS5003;58104;52.744;15.242;2023-06-26T03:49:48;31;29;
70554;PMS5003;58104;52.744;15.242;2023-06-26T03:52:13;30;28;
70554;PMS5003;58104;52.744;15.242;2023-06-26T03:54:39;27;24;
70554;PMS5003;58104;52.744;15.242;2023-06-26T03:57:04;28;26;
70554;PMS5003;58104;52.744;15.242;2023-06-26T03:59:29;25;23;
70554;PMS5003;58104;52.744;15.242;2023-06-26T04:01:55;27;27;
70554;PMS5003;58104;52.744;15.242;2023-06-26T04:04:21;23;23;
70554;PMS5003;58104;52.744;15.242;2023-06-26T04:06:46;24;24;
70554;PMS5003;58104;52.744;15.242;2023-06-26T04:09:11;20;20;
70554;PMS5003;58104;52.744;15.242;2023-06-26T04:11:36;25;24;
70554;PMS5003;58104;52.744;15.242;2023-06-26T04:14:02;24;22;
70554;PMS5003;58104;52.744;15.242;2023-06-26T04:16:28;22;21;
70554;PMS5003;58104;52.744;15.242;2023-06-26T04:18:53;24;22;
70554;PMS5003;58104;52.744;15.242;2023-06-26T04:21:18;24;24;
70554;PMS5003;58104;52.744;15.242;2023-06-26T04:23:43;26;25;
70554;PMS5003;58104;52.744;15.242;2023-06-26T04:26:09;25;25;
70554;PMS5003;58104;52.744;15.242;2023-06-26T04:28:34;26;23;
70554;PMS5003;58104;52.744;15.242;2023-06-26T04:30:59;21;21;
70554;PMS5003;58104;52.744;15.242;2023-06-26T04:33:25;21;20;
70554;PMS5003;58104;52.744;15.242;2023-06-26T04:35:50;22;22;
70554;PMS5003;58104;52.744;15.242;2023-06-26T04:38:15;23;20;
70554;PMS5003;58104;52.744;15.242;2023-06-26T04:40:41;22;22;
70554;PMS5003;58104;52.744;15.242;2023-06-26T04:43:06;22;20;
70554;PMS5003;58104;52.744;15.242;2023-06-26T04:45:31;19;19;
70554;PMS5003;58104;52.744;15.242;2023-06-26T04:47:57;21;21;
70554;PMS5003;58104;52.744;15.242;2023-06-26T04:50:22;25;25;
70554;PMS5003;58104;52.744;15.242;2023-06-26T04:52:47;22;19;
70554;PMS5003;58104;52.744;15.242;2023-06-26T04:55:13;22;22;
70554;PMS5003;58104;52.744;15.242;2023-06-26T04:57:38;19;19;
70554;PMS5003;58104;52.744;15.242;2023-06-26T05:00:04;22;21;
70554;PMS5003;58104;52.744;15.242;2023-06-26T05:02:29;24;24;
70554;PMS5003;58104;52.744;15.242;2023-06-26T05:04:54;23;21;
70554;PMS5003;58104;52.744;15.242;2023-06-26T05:07:20;22;21;
70554;PMS5003;58104;52.744;15.242;2023-06-26T05:09:45;24;23;
70554;PMS5003;58104;52.744;15.242;2023-06-26T05:12:10;22;20;
70554;PMS5003;58104;52.744;15.242;2023-06-26T05:14:36;22;21;
70554;PMS5003;58104;52.744;15.242;2023-06-26T05:17:01;22;20;
70554;PMS5003;58104;52.744;15.242;2023-06-26T05:19:26;24;22;
70554;PMS5003;58104;52.744;15.242;2023-06-26T05:21:52;23;23;
70554;PMS5003;58104;52.744;15.242;2023-06-26T05:24:17;25;23;
70554;PMS5003;58104;52.744;15.242;2023-06-26T05:26:42;25;24;
70554;PMS5003;58104;52.744;15.242;2023-06-26T05:29:08;21;21;
70554;PMS5003;58104;52.744;15.242;2023-06-26T05:31:33;24;23;
70554;PMS5003;58104;52.744;15.242;2023-06-26T05:33:58;24;22;
70554;PMS5003;58104;52.744;15.242;2023-06-26T05:36:24;27;25;
70554;PMS5003;58104;52.744;15.242;2023-06-26T05:38:49;23;21;
70554;PMS5003;58104;52.744;15.242;2023-06-26T05:41:15;28;27;
70554;PMS5003;58104;52.744;15.242;2023-06-26T05:43:40;24;24;
70554;PMS5003;58104;52.744;15.242;2023-06-26T05:46:05;24;24;
70554;PMS5003;58104;52.744;15.242;2023-06-26T05:48:30;22;22;
70554;PMS5003;58104;52.744;15.242;2023-06-26T05:50:55;26;25;
70554;PMS5003;58104;52.744;15.242;2023-06-26T05:53:21;23;22;
70554;PMS5003;58104;52.744;15.242;2023-06-26T05:55:46;19;19;
70554;PMS5003;58104;52.744;15.242;2023-06-26T05:58:11;29;28;
70554;PMS5003;58104;52.744;15.242;2023-06-26T06:00:37;27;25;
70554;PMS5003;58104;52.744;15.242;2023-06-26T06:03:02;29;29;
70554;PMS5003;58104;52.744;15.242;2023-06-26T06:05:28;26;26;
70554;PMS5003;58104;52.744;15.242;2023-06-26T06:07:54;30;27;
70554;PMS5003;58104;52.744;15.242;2023-06-26T06:10:19;28;26;
70554;PMS5003;58104;52.744;15.242;2023-06-26T06:12:44;29;28;
70554;PMS5003;58104;52.744;15.242;2023-06-26T06:15:10;26;26;
70554;PMS5003;58104;52.744;15.242;2023-06-26T06:17:35;33;33;
70554;PMS5003;58104;52.744;15.242;2023-06-26T06:20:01;32;29;
70554;PMS5003;58104;52.744;15.242;2023-06-26T06:22:26;50;46;
70554;PMS5003;58104;52.744;15.242;2023-06-26T06:24:51;39;37;
70554;PMS5003;58104;52.744;15.242;2023-06-26T06:27:17;52;47;
70554;PMS5003;58104;52.744;15.242;2023-06-26T06:29:42;36;36;
70554;PMS5003;58104;52.744;15.242;2023-06-26T06:32:08;41;39;
70554;PMS5003;58104;52.744;15.242;2023-06-26T06:34:33;36;36;
70554;PMS5003;58104;52.744;15.242;2023-06-26T06:36:59;39;37;
70554;PMS5003;58104;52.744;15.242;2023-06-26T06:39:24;36;33;
70554;PMS5003;58104;52.744;15.242;2023-06-26T06:41:49;34;33;
70554;PMS5003;58104;52.744;15.242;2023-06-26T06:44:15;32;31;
70554;PMS5003;58104;52.744;15.242;2023-06-26T06:46:40;37;36;
70554;PMS5003;58104;52.744;15.242;2023-06-26T06:49:05;35;35;
70554;PMS5003;58104;52.744;15.242;2023-06-26T06:51:31;47;43;
70554;PMS5003;58104;52.744;15.242;2023-06-26T06:53:57;45;44;
70554;PMS5003;58104;52.744;15.242;2023-06-26T06:56:22;37;35;
70554;PMS5003;58104;52.744;15.242;2023-06-26T06:58:48;39;36;
70554;PMS5003;58104;52.744;15.242;2023-06-26T07:01:13;36;34;
70554;PMS5003;58104;52.744;15.242;2023-06-26T07:03:38;38;36;
70554;PMS5003;58104;52.744;15.242;2023-06-26T07:06:04;32;32;
70554;PMS5003;58104;52.744;15.242;2023-06-26T07:08:30;46;40;
70554;PMS5003;58104;52.744;15.242;2023-06-26T07:10:55;38;38;
70554;PMS5003;58104;52.744;15.242;2023-06-26T07:13:21;43;40;
70554;PMS5003;58104;52.744;15.242;2023-06-26T07:15:46;37;35;
70554;PMS5003;58104;52.744;15.242;2023-06-26T07:18:12;33;33;
70554;PMS5003;58104;52.744;15.242;2023-06-26T07:20:37;35;31;
70554;PMS5003;58104;52.744;15.242;2023-06-26T07:23:02;35;35;
70554;PMS5003;58104;52.744;15.242;2023-06-26T07:25:27;32;30;
70554;PMS5003;58104;52.744;15.242;2023-06-26T07:27:53;33;31;
70554;PMS5003;58104;52.744;15.242;2023-06-26T07:30:19;36;33;
70554;PMS5003;58104;52.744;15.242;2023-06-26T07:32:45;39;38;
70554;PMS5003;58104;52.744;15.242;2023-06-26T07:35:10;35;35;
70554;PMS5003;58104;52.744;15.242;2023-06-26T07:37:36;32;31;
70554;PMS5003;58104;52.744;15.242;2023-06-26T07:40:01;31;29;
70554;PMS5003;58104;52.744;15.242;2023-06-26T07:42:26;31;29;
70554;PMS5003;58104;52.744;15.242;2023-06-26T07:44:51;34;32;
70554;PMS5003;58104;52.744;15.242;2023-06-26T07:47:17;36;32;
70554;PMS5003;58104;52.744;15.242;2023-06-26T07:49:42;35;32;
70554;PMS5003;58104;52.744;15.242;2023-06-26T07:52:07;32;31;
70554;PMS5003;58104;52.744;15.242;2023-06-26T07:54:33;26;26;
70554;PMS5003;58104;52.744;15.242;2023-06-26T07:56:59;28;26;
70554;PMS5003;58104;52.744;15.242;2023-06-26T07:59:24;31;29;
70554;PMS5003;58104;52.744;15.242;2023-06-26T08:01:49;29;29;
70554;PMS5003;58104;52.744;15.242;2023-06-26T08:04:14;35;34;
70554;PMS5003;58104;52.744;15.242;2023-06-26T08:06:40;30;29;
70554;PMS5003;58104;52.744;15.242;2023-06-26T08:09:06;32;28;
70554;PMS5003;58104;52.744;15.242;2023-06-26T08:11:31;26;26;
70554;PMS5003;58104;52.744;15.242;2023-06-26T08:13:56;27;26;
70554;PMS5003;58104;52.744;15.242;2023-06-26T08:16:22;34;30;
70554;PMS5003;58104;52.744;15.242;2023-06-26T08:18:47;29;26;
70554;PMS5003;58104;52.744;15.242;2023-06-26T08:21:12;27;25;
70554;PMS5003;58104;52.744;15.242;2023-06-26T08:23:38;25;25;
70554;PMS5003;58104;52.744;15.242;2023-06-26T08:26:03;30;28;
70554;PMS5003;58104;52.744;15.242;2023-06-26T08:28:29;25;25;
70554;PMS5003;58104;52.744;15.242;2023-06-26T08:30:54;27;27;
70554;PMS5003;58104;52.744;15.242;2023-06-26T08:33:19;23;23;
70554;PMS5003;58104;52.744;15.242;2023-06-26T08:35:44;24;24;
70554;PMS5003;58104;52.744;15.242;2023-06-26T08:38:10;28;27;
70554;PMS5003;58104;52.744;15.242;2023-06-26T08:40:35;26;26;
70554;PMS5003;58104;52.744;15.242;2023-06-26T08:43:00;31;28;
70554;PMS5003;58104;52.744;15.242;2023-06-26T08:45:26;27;26;
70554;PMS5003;58104;52.744;15.242;2023-06-26T08:47:52;27;27;
70554;PMS5003;58104;52.744;15.242;2023-06-26T08:50:17;25;25;
70554;PMS5003;58104;52.744;15.242;2023-06-26T08:52:43;28;26;
70554;PMS5003;58104;52.744;15.242;2023-06-26T08:55:09;26;26;
70554;PMS5003;58104;52.744;15.242;2023-06-26T08:57:33;28;28;
70554;PMS5003;58104;52.744;15.242;2023-06-26T08:59:59;27;25;
70554;PMS5003;58104;52.744;15.242;2023-06-26T09:02:24;30;29;
70554;PMS5003;58104;52.744;15.242;2023-06-26T09:04:50;29;29;
70554;PMS5003;58104;52.744;15.242;2023-06-26T09:07:15;31;28;
70554;PMS5003;58104;52.744;15.242;2023-06-26T09:09:40;30;29;
70554;PMS5003;58104;52.744;15.242;2023-06-26T09:12:06;27;27;
70554;PMS5003;58104;52.744;15.242;2023-06-26T09:14:31;28;26;
70554;PMS5003;58104;52.744;15.242;2023-06-26T09:16:56;31;28;
70554;PMS5003;58104;52.744;15.242;2023-06-26T09:19:21;27;27;
70554;PMS5003;58104;52.744;15.242;2023-06-26T09:21:48;29;29;
70554;PMS5003;58104;52.744;15.242;2023-06-26T09:24:12;25;25;
70554;PMS5003;58104;52.744;15.242;2023-06-26T09:26:38;32;31;
70554;PMS5003;58104;52.744;15.242;2023-06-26T09:29:03;32;31;
70554;PMS5003;58104;52.744;15.242;2023-06-26T09:31:28;28;25;
70554;PMS5003;58104;52.744;15.242;2023-06-26T09:33:55;32;31;
70554;PMS5003;58104;52.744;15.242;2023-06-26T09:36:19;28;28;
70554;PMS5003;58104;52.744;15.242;2023-06-26T09:38:44;31;31;
70554;PMS5003;58104;52.744;15.242;2023-06-26T09:41:09;29;28;
70554;PMS5003;58104;52.744;15.242;2023-06-26T09:43:36;27;25;
70554;PMS5003;58104;52.744;15.242;2023-06-26T09:46:00;31;31;
70554;PMS5003;58104;52.744;15.242;2023-06-26T09:48:25;23;23;
70554;PMS5003;58104;52.744;15.242;2023-06-26T09:50:51;29;27;
70554;PMS5003;58104;52.744;15.242;2023-06-26T09:53:16;29;27;
70554;PMS5003;58104;52.744;15.242;2023-06-26T09:55:41;26;26;
70554;PMS5003;58104;52.744;15.242;2023-06-26T09:58:07;24;24;
70554;PMS5003;58104;52.744;15.242;2023-06-26T10:00:32;25;25;
70554;PMS5003;58104;52.744;15.242;2023-06-26T10:02:57;35;30;
70554;PMS5003;58104;52.744;15.242;2023-06-26T10:05:22;26;25;
70554;PMS5003;58104;52.744;15.242;2023-06-26T10:07:48;32;32;
70554;PMS5003;58104;52.744;15.242;2023-06-26T10:10:13;26;26;
70554;PMS5003;58104;52.744;15.242;2023-06-26T10:12:38;26;26;
70554;PMS5003;58104;52.744;15.242;2023-06-26T10:15:04;29;29;
70554;PMS5003;58104;52.744;15.242;2023-06-26T10:17:30;26;24;
70554;PMS5003;58104;52.744;15.242;2023-06-26T10:19:54;30;27;
70554;PMS5003;58104;52.744;15.242;2023-06-26T10:22:20;26;25;
70554;PMS5003;58104;52.744;15.242;2023-06-26T10:24:45;26;25;
70554;PMS5003;58104;52.744;15.242;2023-06-26T10:27:10;32;30;
70554;PMS5003;58104;52.744;15.242;2023-06-26T10:29:35;24;22;
70554;PMS5003;58104;52.744;15.242;2023-06-26T10:32:00;30;28;
70554;PMS5003;58104;52.744;15.242;2023-06-26T10:34:26;28;28;
70554;PMS5003;58104;52.744;15.242;2023-06-26T10:39:17;24;24;
70554;PMS5003;58104;52.744;15.242;2023-06-26T10:41:42;26;26;
70554;PMS5003;58104;52.744;15.242;2023-06-26T10:44:09;31;28;
70554;PMS5003;58104;52.744;15.242;2023-06-26T10:46:33;29;27;
70554;PMS5003;58104;52.744;15.242;2023-06-26T10:48:59;32;31;
70554;PMS5003;58104;52.744;15.242;2023-06-26T10:51:24;27;27;
70554;PMS5003;58104;52.744;15.242;2023-06-26T10:53:50;26;26;
70554;PMS5003;58104;52.744;15.242;2023-06-26T10:56:15;26;26;
70554;PMS5003;58104;52.744;15.242;2023-06-26T10:58:41;28;25;
70554;PMS5003;58104;52.744;15.242;2023-06-26T11:01:14;32;32;
70554;PMS5003;58104;52.744;15.242;2023-06-26T11:03:31;28;28;
70554;PMS5003;58104;52.744;15.242;2023-06-26T11:08:22;27;26;
70554;PMS5003;58104;52.744;15.242;2023-06-26T11:10:48;27;26;
70554;PMS5003;58104;52.744;15.242;2023-06-26T11:13:12;29;28;
70554;PMS5003;58104;52.744;15.242;2023-06-26T11:15:37;23;22;
70554;PMS5003;58104;52.744;15.242;2023-06-26T11:18:03;28;26;
70554;PMS5003;58104;52.744;15.242;2023-06-26T11:20:28;24;24;
70554;PMS5003;58104;52.744;15.242;2023-06-26T11:22:53;29;27;
70554;PMS5003;58104;52.744;15.242;2023-06-26T11:25:19;28;28;
70554;PMS5003;58104;52.744;15.242;2023-06-26T11:27:44;22;22;
70554;PMS5003;58104;52.744;15.242;2023-06-26T11:30:10;26;26;
70554;PMS5003;58104;52.744;15.242;2023-06-26T11:32:35;28;27;
70554;PMS5003;58104;52.744;15.242;2023-06-26T11:35:01;34;32;
70554;PMS5003;58104;52.744;15.242;2023-06-26T11:37:26;26;24;
70554;PMS5003;58104;52.744;15.242;2023-06-26T11:39:51;21;20;
70554;PMS5003;58104;52.744;15.242;2023-06-26T11:42:16;23;23;
70554;PMS5003;58104;52.744;15.242;2023-06-26T11:44:42;25;24;
70554;PMS5003;58104;52.744;15.242;2023-06-26T11:47:07;22;22;
70554;PMS5003;58104;52.744;15.242;2023-06-26T11:49:32;20;20;
70554;PMS5003;58104;52.744;15.242;2023-06-26T11:51:57;25;25;
70554;PMS5003;58104;52.744;15.242;2023-06-26T11:54:24;21;21;
70554;PMS5003;58104;52.744;15.242;2023-06-26T11:56:51;25;25;
70554;PMS5003;58104;52.744;15.242;2023-06-26T11:59:14;23;22;
70554;PMS5003;58104;52.744;15.242;2023-06-26T12:01:40;24;23;
70554;PMS5003;58104;52.744;15.242;2023-06-26T12:04:05;23;23;
70554;PMS5003;58104;52.744;15.242;2023-06-26T12:06:30;23;23;
70554;PMS5003;58104;52.744;15.242;2023-06-26T12:08:55;25;25;
70554;PMS5003;58104;52.744;15.242;2023-06-26T12:11:20;22;21;
70554;PMS5003;58104;52.744;15.242;2023-06-26T12:13:45;21;20;
70554;PMS5003;58104;52.744;15.242;2023-06-26T12:16:10;26;26;
70554;PMS5003;58104;52.744;15.242;2023-06-26T12:18:35;26;25;
70554;PMS5003;58104;52.744;15.242;2023-06-26T12:21:01;22;21;
70554;PMS5003;58104;52.744;15.242;2023-06-26T12:25:51;19;19;
70554;PMS5003;58104;52.744;15.242;2023-06-26T12:28:16;26;25;
70554;PMS5003;58104;52.744;15.242;2023-06-26T12:30:45;26;25;
70554;PMS5003;58104;52.744;15.242;2023-06-26T12:35:32;24;24;
70554;PMS5003;58104;52.744;15.242;2023-06-26T12:37:58;20;20;
70554;PMS5003;58104;52.744;15.242;2023-06-26T12:40:23;22;22;
70554;PMS5003;58104;52.744;15.242;2023-06-26T12:42:48;26;23;
70554;PMS5003;58104;52.744;15.242;2023-06-26T12:45:14;25;24;
70554;PMS5003;58104;52.744;15.242;2023-06-26T12:47:39;27;25;
70554;PMS5003;58104;52.744;15.242;2023-06-26T12:50:05;31;30;
70554;PMS5003;58104;52.744;15.242;2023-06-26T12:52:30;27;27;
70554;PMS5003;58104;52.744;15.242;2023-06-26T12:54:55;26;25;
70554;PMS5003;58104;52.744;15.242;2023-06-26T12:57:21;22;22;
70554;PMS5003;58104;52.744;15.242;2023-06-26T12:59:46;26;23;
70554;PMS5003;58104;52.744;15.242;2023-06-26T13:02:12;24;21;
70554;PMS5003;58104;52.744;15.242;2023-06-26T13:04:37;27;25;
70554;PMS5003;58104;52.744;15.242;2023-06-26T13:07:02;23;23;
70554;PMS5003;58104;52.744;15.242;2023-06-26T13:09:32;27;26;
70554;PMS5003;58104;52.744;15.242;2023-06-26T13:11:53;23;23;
70554;PMS5003;58104;52.744;15.242;2023-06-26T13:14:18;24;24;
70554;PMS5003;58104;52.744;15.242;2023-06-26T13:16:44;26;23;
70554;PMS5003;58104;52.744;15.242;2023-06-26T13:19:09;24;24;
70554;PMS5003;58104;52.744;15.242;2023-06-26T13:21:34;22;22;
70554;PMS5003;58104;52.744;15.242;2023-06-26T13:23:59;23;23;
70554;PMS5003;58104;52.744;15.242;2023-06-26T13:26:25;25;25;
70554;PMS5003;58104;52.744;15.242;2023-06-26T13:28:50;26;26;
70554;PMS5003;58104;52.744;15.242;2023-06-26T13:31:15;26;24;
70554;PMS5003;58104;52.744;15.242;2023-06-26T13:33:40;25;24;
70554;PMS5003;58104;52.744;15.242;2023-06-26T13:36:06;32;32;
70554;PMS5003;58104;52.744;15.242;2023-06-26T13:38:32;25;25;
70554;PMS5003;58104;52.744;15.242;2023-06-26T13:40:56;23;23;
70554;PMS5003;58104;52.744;15.242;2023-06-26T13:43:21;24;24;
70554;PMS5003;58104;52.744;15.242;2023-06-26T13:45:46;25;25;
70554;PMS5003;58104;52.744;15.242;2023-06-26T13:48:12;31;29;
70554;PMS5003;58104;52.744;15.242;2023-06-26T13:50:37;23;23;
70554;PMS5003;58104;52.744;15.242;2023-06-26T13:53:03;20;20;
70554;PMS5003;58104;52.744;15.242;2023-06-26T13:55:28;25;25;
70554;PMS5003;58104;52.744;15.242;2023-06-26T13:57:53;28;28;
70554;PMS5003;58104;52.744;15.242;2023-06-26T14:00:19;25;25;
70554;PMS5003;58104;52.744;15.242;2023-06-26T14:02:44;23;23;
70554;PMS5003;58104;52.744;15.242;2023-06-26T14:05:10;24;21;
70554;PMS5003;58104;52.744;15.242;2023-06-26T14:07:35;23;22;
70554;PMS5003;58104;52.744;15.242;2023-06-26T14:10:00;22;22;
70554;PMS5003;58104;52.744;15.242;2023-06-26T14:12:26;22;22;
70554;PMS5003;58104;52.744;15.242;2023-06-26T14:14:51;21;20;
70554;PMS5003;58104;52.744;15.242;2023-06-26T14:17:16;24;22;
70554;PMS5003;58104;52.744;15.242;2023-06-26T14:19:41;26;24;
70554;PMS5003;58104;52.744;15.242;2023-06-26T14:22:07;26;25;
70554;PMS5003;58104;52.744;15.242;2023-06-26T14:24:33;23;23;
70554;PMS5003;58104;52.744;15.242;2023-06-26T14:26:59;25;25;
70554;PMS5003;58104;52.744;15.242;2023-06-26T14:29:24;23;23;
70554;PMS5003;58104;52.744;15.242;2023-06-26T14:31:50;23;23;
70554;PMS5003;58104;52.744;15.242;2023-06-26T14:34:15;27;25;
70554;PMS5003;58104;52.744;15.242;2023-06-26T14:36:40;29;25;
70554;PMS5003;58104;52.744;15.242;2023-06-26T14:39:05;26;24;
70554;PMS5003;58104;52.744;15.242;2023-06-26T14:41:30;25;25;
70554;PMS5003;58104;52.744;15.242;2023-06-26T14:43:56;24;24;
70554;PMS5003;58104;52.744;15.242;2023-06-26T14:46:21;27;25;
70554;PMS5003;58104;52.744;15.242;2023-06-26T14:48:47;24;22;
70554;PMS5003;58104;52.744;15.242;2023-06-26T14:51:11;22;19;
70554;PMS5003;58104;52.744;15.242;2023-06-26T14:53:36;27;26;
70554;PMS5003;58104;52.744;15.242;2023-06-26T14:56:02;27;27;
70554;PMS5003;58104;52.744;15.242;2023-06-26T14:58:28;22;22;
70554;PMS5003;58104;52.744;15.242;2023-06-26T15:00:53;23;23;
70554;PMS5003;58104;52.744;15.242;2023-06-26T15:03:18;25;24;
70554;PMS5003;58104;52.744;15.242;2023-06-26T15:05:44;26;26;
70554;PMS5003;58104;52.744;15.242;2023-06-26T15:08:09;26;25;
70554;PMS5003;58104;52.744;15.242;2023-06-26T15:10:34;22;22;
70554;PMS5003;58104;52.744;15.242;2023-06-26T15:13:00;24;24;
70554;PMS5003;58104;52.744;15.242;2023-06-26T15:15:26;25;25;
70554;PMS5003;58104;52.744;15.242;2023-06-26T15:17:51;23;23;
70554;PMS5003;58104;52.744;15.242;2023-06-26T15:20:16;29;27;
70554;PMS5003;58104;52.744;15.242;2023-06-26T15:22:41;30;28;
70554;PMS5003;58104;52.744;15.242;2023-06-26T15:25:07;26;26;
70554;PMS5003;58104;52.744;15.242;2023-06-26T15:27:32;24;24;
70554;PMS5003;58104;52.744;15.242;2023-06-26T15:29:58;20;20;
70554;PMS5003;58104;52.744;15.242;2023-06-26T15:32:23;22;22;
70554;PMS5003;58104;52.744;15.242;2023-06-26T15:34:48;24;24;
70554;PMS5003;58104;52.744;15.242;2023-06-26T15:37:13;25;23;
70554;PMS5003;58104;52.744;15.242;2023-06-26T15:39:39;24;24;
70554;PMS5003;58104;52.744;15.242;2023-06-26T15:42:04;25;24;
70554;PMS5003;58104;52.744;15.242;2023-06-26T15:44:29;23;23;
70554;PMS5003;58104;52.744;15.242;2023-06-26T15:46:55;22;22;
70554;PMS5003;58104;52.744;15.242;2023-06-26T15:49:20;23;22;
70554;PMS5003;58104;52.744;15.242;2023-06-26T15:51:45;23;23;
70554;PMS5003;58104;52.744;15.242;2023-06-26T15:54:10;28;26;
70554;PMS5003;58104;52.744;15.242;2023-06-26T15:56:35;24;24;
70554;PMS5003;58104;52.744;15.242;2023-06-26T15:59:01;18;18;